createdAt,value
2022-11-29T00:00:46.018Z,10.02
2022-11-29T00:01:45.020Z,9.85
2022-11-29T00:02:45.050Z,9.73
2022-11-29T00:03:44.945Z,9.67
2022-11-29T00:04:45.369Z,9.69
2022-11-29T00:05:44.901Z,9.72
2022-11-29T00:06:44.955Z,9.73
2022-11-29T00:07:44.971Z,9.77
2022-11-29T00:08:44.948Z,9.84
2022-11-29T00:09:44.950Z,9.92
2022-11-29T00:10:44.959Z,10.00
2022-11-29T00:11:45.009Z,10.07
2022-11-29T00:12:44.916Z,10.11
2022-11-29T00:13:44.917Z,10.14
2022-11-29T00:14:46.540Z,10.17
2022-11-29T00:15:44.976Z,10.19
2022-11-29T00:16:45.023Z,10.24
2022-11-29T00:19:44.961Z,10.25
2022-11-29T00:20:44.938Z,10.23
2022-11-29T00:21:45.010Z,10.22
2022-11-29T00:22:44.968Z,10.19
2022-11-29T00:23:44.973Z,10.17
2022-11-29T00:24:45.235Z,10.14
2022-11-29T00:25:44.991Z,10.10
2022-11-29T00:26:44.986Z,10.04
2022-11-29T00:27:45.015Z,10.05
2022-11-29T00:28:44.950Z,10.07
2022-11-29T00:29:45.023Z,10.09
2022-11-29T00:30:45.022Z,10.07
2022-11-29T00:32:45.001Z,10.09
2022-11-29T00:33:44.997Z,10.10
2022-11-29T00:34:45.172Z,10.15
2022-11-29T00:35:45.005Z,10.20
2022-11-29T00:36:44.964Z,10.23
2022-11-29T00:37:44.962Z,10.28
2022-11-29T00:38:44.994Z,10.30
2022-11-29T00:39:45.012Z,10.34
2022-11-29T00:40:45.017Z,10.35
2022-11-29T00:41:44.979Z,10.36
2022-11-29T00:42:45.055Z,10.33
2022-11-29T00:43:45.057Z,10.29
2022-11-29T00:44:45.352Z,10.27
2022-11-29T00:45:45.006Z,10.28
2022-11-29T00:47:45.043Z,10.29
2022-11-29T00:48:45.050Z,10.20
2022-11-29T00:49:45.092Z,10.18
2022-11-29T00:51:45.052Z,10.20
2022-11-29T00:52:45.039Z,10.21
2022-11-29T00:53:45.024Z,10.25
2022-11-29T00:54:45.395Z,10.27
2022-11-29T00:55:45.078Z,10.28
2022-11-29T00:56:45.058Z,10.29
2022-11-29T00:57:45.067Z,10.31
2022-11-29T00:58:45.033Z,10.32
2022-11-29T01:01:45.073Z,10.35
2022-11-29T01:02:45.093Z,10.37
2022-11-29T01:03:45.089Z,10.38
2022-11-29T01:05:45.085Z,10.39
2022-11-29T01:21:45.111Z,10.50
2022-11-29T01:23:45.133Z,10.51
2022-11-29T01:24:45.262Z,10.49
2022-11-29T01:25:45.106Z,10.47
2022-11-29T01:36:45.168Z,10.49
2022-11-29T01:37:45.205Z,10.52
2022-11-29T01:38:45.164Z,10.49
2022-11-29T01:40:45.168Z,10.46
2022-11-29T01:43:45.182Z,10.43
2022-11-29T01:44:45.478Z,10.41
2022-11-29T01:45:45.202Z,10.43
2022-11-29T01:48:45.174Z,10.41
2022-11-29T01:49:45.216Z,10.39
2022-11-29T01:51:45.193Z,10.38
2022-11-29T01:53:45.203Z,10.42
2022-11-29T01:54:45.507Z,10.44
2022-11-29T01:55:45.297Z,10.46
2022-11-29T01:57:45.250Z,10.42
2022-11-29T01:59:45.203Z,10.43
2022-11-29T02:00:45.242Z,10.44
2022-11-29T02:01:45.306Z,10.43
2022-11-29T02:02:45.349Z,10.45
2022-11-29T02:04:45.484Z,10.47
2022-11-29T02:05:45.216Z,10.46
2022-11-29T02:06:45.229Z,10.47
2022-11-29T02:07:45.308Z,10.46
2022-11-29T02:08:45.240Z,10.44
2022-11-29T02:09:45.266Z,10.42
2022-11-29T02:11:45.257Z,10.40
2022-11-29T02:13:45.249Z,10.37
2022-11-29T02:15:45.337Z,10.33
2022-11-29T02:16:45.218Z,10.35
2022-11-29T02:17:45.249Z,10.36
2022-11-29T02:18:45.265Z,10.39
2022-11-29T02:19:45.260Z,10.40
2022-11-29T02:20:45.222Z,10.42
2022-11-29T02:21:45.231Z,10.46
2022-11-29T02:22:45.319Z,10.45
2022-11-29T02:23:45.233Z,10.47
2022-11-29T02:26:45.291Z,10.49
2022-11-29T02:27:45.314Z,10.51
2022-11-29T02:28:45.295Z,10.53
2022-11-29T02:30:45.309Z,10.55
2022-11-29T02:31:45.286Z,10.56
2022-11-29T02:32:45.289Z,10.55
2022-11-29T02:33:45.256Z,10.51
2022-11-29T02:34:45.440Z,10.49
2022-11-29T02:35:45.324Z,10.47
2022-11-29T02:36:45.334Z,10.43
2022-11-29T02:38:45.305Z,10.44
2022-11-29T02:39:45.290Z,10.49
2022-11-29T02:40:45.329Z,10.50
2022-11-29T02:41:45.305Z,10.49
2022-11-29T02:43:45.327Z,10.50
2022-11-29T02:44:45.493Z,10.49
2022-11-29T02:45:45.365Z,10.50
2022-11-29T02:47:45.359Z,10.52
2022-11-29T02:48:45.354Z,10.53
2022-11-29T02:49:45.334Z,10.54
2022-11-29T02:50:45.369Z,10.58
2022-11-29T02:51:45.300Z,10.59
2022-11-29T02:52:45.390Z,10.58
2022-11-29T02:53:45.306Z,10.56
2022-11-29T02:54:45.658Z,10.55
2022-11-29T02:56:45.354Z,10.57
2022-11-29T02:58:45.339Z,10.58
2022-11-29T03:00:45.395Z,10.54
2022-11-29T03:01:45.360Z,10.51
2022-11-29T03:02:45.446Z,10.49
2022-11-29T03:03:45.367Z,10.50
2022-11-29T03:04:45.676Z,10.49
2022-11-29T03:06:45.342Z,10.50
2022-11-29T03:07:45.423Z,10.49
2022-11-29T03:09:45.483Z,10.50
2022-11-29T03:10:45.431Z,10.51
2022-11-29T03:11:45.398Z,10.50
2022-11-29T03:12:45.426Z,10.51
2022-11-29T03:13:45.400Z,10.50
2022-11-29T03:15:45.537Z,10.47
2022-11-29T03:16:45.412Z,10.41
2022-11-29T03:17:45.420Z,10.39
2022-11-29T03:18:45.406Z,10.38
2022-11-29T03:19:45.421Z,10.40
2022-11-29T03:20:45.444Z,10.41
2022-11-29T03:23:45.433Z,10.42
2022-11-29T03:24:45.516Z,10.43
2022-11-29T03:26:45.428Z,10.46
2022-11-29T03:27:45.441Z,10.47
2022-11-29T03:28:45.421Z,10.49
2022-11-29T03:29:45.435Z,10.50
2022-11-29T03:30:45.557Z,10.51
2022-11-29T03:31:45.400Z,10.52
2022-11-29T03:32:45.444Z,10.53
2022-11-29T03:33:45.476Z,10.56
2022-11-29T03:34:45.736Z,10.59
2022-11-29T03:35:45.474Z,10.60
2022-11-29T03:36:45.440Z,10.61
2022-11-29T03:37:45.467Z,10.63
2022-11-29T03:38:45.500Z,10.67
2022-11-29T03:39:45.450Z,10.68
2022-11-29T03:40:45.490Z,10.66
2022-11-29T03:42:45.479Z,10.67
2022-11-29T03:43:45.508Z,10.68
2022-11-29T03:44:45.667Z,10.69
2022-11-29T03:45:45.490Z,10.68
2022-11-29T03:47:45.442Z,10.67
2022-11-29T03:49:45.452Z,10.68
2022-11-29T03:50:45.505Z,10.69
2022-11-29T03:51:45.461Z,10.66
2022-11-29T03:52:45.493Z,10.64
2022-11-29T03:53:45.501Z,10.63
2022-11-29T03:54:45.821Z,10.64
2022-11-29T03:56:45.495Z,10.65
2022-11-29T03:57:45.518Z,10.63
2022-11-29T03:58:45.497Z,10.62
2022-11-29T03:59:45.482Z,10.60
2022-11-29T04:01:45.512Z,10.57
2022-11-29T04:02:45.546Z,10.55
2022-11-29T04:03:45.548Z,10.54
2022-11-29T04:04:45.748Z,10.55
2022-11-29T04:05:45.538Z,10.56
2022-11-29T04:06:45.505Z,10.57
2022-11-29T04:07:45.530Z,10.56
2022-11-29T04:08:45.538Z,10.53
2022-11-29T04:09:45.547Z,10.51
2022-11-29T04:11:45.505Z,10.50
2022-11-29T04:12:45.564Z,10.48
2022-11-29T04:14:45.853Z,10.46
2022-11-29T04:16:45.545Z,10.48
2022-11-29T04:17:45.531Z,10.50
2022-11-29T04:18:45.575Z,10.51
2022-11-29T04:19:45.573Z,10.47
2022-11-29T04:20:48.168Z,10.44
2022-11-29T04:21:45.613Z,10.41
2022-11-29T04:22:45.567Z,10.39
2022-11-29T04:23:45.625Z,10.38
2022-11-29T04:24:45.911Z,10.39
2022-11-29T04:26:45.628Z,10.42
2022-11-29T04:27:45.575Z,10.45
2022-11-29T04:28:45.573Z,10.48
2022-11-29T04:29:45.585Z,10.50
2022-11-29T04:30:45.666Z,10.51
2022-11-29T04:31:45.597Z,10.54
2022-11-29T04:32:45.577Z,10.52
2022-11-29T04:33:45.624Z,10.47
2022-11-29T04:34:45.973Z,10.46
2022-11-29T04:35:45.633Z,10.45
2022-11-29T04:36:45.599Z,10.46
2022-11-29T04:37:45.604Z,10.45
2022-11-29T04:39:45.607Z,10.43
2022-11-29T04:41:45.572Z,10.42
2022-11-29T04:42:45.589Z,10.32
2022-11-29T04:43:45.663Z,10.26
2022-11-29T04:44:45.749Z,10.25
2022-11-29T04:46:45.726Z,10.24
2022-11-29T04:47:45.613Z,10.23
2022-11-29T04:49:45.660Z,10.22
2022-11-29T04:50:45.633Z,10.24
2022-11-29T04:51:45.646Z,10.25
2022-11-29T04:52:45.633Z,10.29
2022-11-29T04:54:46.077Z,10.27
2022-11-29T04:55:45.680Z,10.24
2022-11-29T04:56:45.692Z,10.22
2022-11-29T04:58:45.649Z,10.20
2022-11-29T04:59:45.634Z,10.19
2022-11-29T05:00:45.690Z,10.17
2022-11-29T05:02:45.650Z,10.12
2022-11-29T05:03:46.921Z,10.08
2022-11-29T05:08:45.684Z,10.11
2022-11-29T05:10:45.646Z,10.04
2022-11-29T05:11:45.678Z,9.99
2022-11-29T05:12:45.706Z,9.98
2022-11-29T05:13:45.657Z,10.01
2022-11-29T05:14:46.007Z,10.03
2022-11-29T05:15:45.747Z,10.06
2022-11-29T05:16:45.736Z,10.09
2022-11-29T05:17:45.717Z,10.10
2022-11-29T05:18:46.998Z,10.12
2022-11-29T05:19:45.733Z,10.15
2022-11-29T05:21:45.761Z,10.11
2022-11-29T05:22:45.732Z,10.13
2022-11-29T05:23:45.706Z,10.12
2022-11-29T05:24:46.146Z,10.11
2022-11-29T05:25:45.720Z,10.12
2022-11-29T05:26:45.731Z,10.13
2022-11-29T05:27:45.727Z,10.14
2022-11-29T05:28:45.720Z,10.11
2022-11-29T05:30:45.707Z,10.08
2022-11-29T05:31:45.737Z,10.09
2022-11-29T05:32:45.770Z,10.07
2022-11-29T05:33:45.721Z,10.02
2022-11-29T05:34:45.761Z,9.97
2022-11-29T05:35:45.757Z,9.96
2022-11-29T05:36:45.748Z,9.97
2022-11-29T05:37:45.809Z,9.96
2022-11-29T05:38:45.760Z,9.95
2022-11-29T05:40:45.769Z,9.90
2022-11-29T05:41:45.728Z,9.89
2022-11-29T05:42:45.798Z,9.86
2022-11-29T05:43:45.757Z,9.89
2022-11-29T05:44:46.092Z,9.91
2022-11-29T05:45:45.807Z,9.95
2022-11-29T05:47:45.770Z,9.94
2022-11-29T05:48:45.788Z,9.93
2022-11-29T05:49:45.832Z,9.92
2022-11-29T05:50:45.787Z,9.91
2022-11-29T05:51:45.772Z,9.88
2022-11-29T05:52:45.817Z,9.84
2022-11-29T05:53:45.782Z,9.79
2022-11-29T05:55:45.767Z,9.83
2022-11-29T05:56:45.804Z,9.84
2022-11-29T05:57:45.857Z,9.80
2022-11-29T05:58:45.769Z,9.82
2022-11-29T05:59:45.809Z,9.81
2022-11-29T06:00:45.815Z,9.78
2022-11-29T06:01:45.836Z,9.79
2022-11-29T06:02:45.843Z,9.81
2022-11-29T06:03:45.803Z,9.86
2022-11-29T06:04:46.085Z,9.94
2022-11-29T06:05:45.869Z,9.99
2022-11-29T06:06:45.787Z,10.04
2022-11-29T06:07:45.935Z,10.07
2022-11-29T06:08:45.827Z,10.10
2022-11-29T06:09:45.798Z,10.15
2022-11-29T06:10:45.859Z,10.18
2022-11-29T06:11:45.796Z,10.21
2022-11-29T06:12:45.881Z,10.22
2022-11-29T06:13:45.843Z,10.23
2022-11-29T06:14:46.274Z,10.24
2022-11-29T06:16:45.839Z,10.27
2022-11-29T06:17:45.854Z,10.29
2022-11-29T06:18:45.825Z,10.28
2022-11-29T06:19:45.822Z,10.27
2022-11-29T06:20:45.893Z,10.25
2022-11-29T06:21:45.857Z,10.21
2022-11-29T06:22:45.883Z,10.20
2022-11-29T06:23:45.864Z,10.18
2022-11-29T06:24:46.361Z,10.17
2022-11-29T06:25:45.865Z,10.16
2022-11-29T06:26:45.874Z,10.15
2022-11-29T06:27:45.862Z,10.14
2022-11-29T06:28:45.930Z,10.15
2022-11-29T06:29:45.886Z,10.17
2022-11-29T06:31:45.924Z,10.20
2022-11-29T06:32:45.881Z,10.18
2022-11-29T06:33:45.946Z,10.17
2022-11-29T06:34:46.124Z,10.15
2022-11-29T06:35:45.872Z,10.12
2022-11-29T06:36:45.944Z,10.11
2022-11-29T06:37:45.904Z,10.10
2022-11-29T06:39:45.888Z,10.09
2022-11-29T06:40:45.871Z,10.08
2022-11-29T06:42:45.892Z,10.10
2022-11-29T06:43:45.955Z,10.13
2022-11-29T06:44:46.165Z,10.14
2022-11-29T06:45:45.931Z,10.16
2022-11-29T06:47:45.940Z,10.18
2022-11-29T06:48:45.916Z,10.11
2022-11-29T06:49:45.970Z,10.03
2022-11-29T06:50:45.900Z,10.02
2022-11-29T06:51:45.962Z,10.04
2022-11-29T06:52:45.890Z,10.09
2022-11-29T06:53:45.939Z,10.13
2022-11-29T06:54:46.208Z,10.14
2022-11-29T06:55:45.925Z,10.18
2022-11-29T06:56:45.976Z,10.20
2022-11-29T06:57:45.947Z,10.22
2022-11-29T07:01:46.061Z,10.21
2022-11-29T07:02:45.960Z,10.20
2022-11-29T07:04:46.611Z,10.18
2022-11-29T07:05:45.971Z,10.19
2022-11-29T07:06:45.965Z,10.22
2022-11-29T07:07:46.046Z,10.21
2022-11-29T07:08:45.959Z,10.20
2022-11-29T07:09:46.015Z,10.18
2022-11-29T07:10:45.951Z,10.15
2022-11-29T07:11:45.994Z,10.12
2022-11-29T07:12:45.994Z,10.09
2022-11-29T07:13:45.995Z,10.08
2022-11-29T07:15:45.974Z,10.07
2022-11-29T07:16:45.954Z,10.06
2022-11-29T07:17:46.035Z,10.05
2022-11-29T07:18:46.011Z,10.06
2022-11-29T07:19:46.040Z,10.05
2022-11-29T07:20:46.035Z,10.04
2022-11-29T07:21:46.018Z,10.05
2022-11-29T07:22:46.059Z,10.06
2022-11-29T07:23:46.016Z,10.05
2022-11-29T07:24:46.287Z,10.04
2022-11-29T07:25:45.980Z,9.96
2022-11-29T07:26:46.031Z,9.87
2022-11-29T07:27:46.044Z,9.78
2022-11-29T07:28:46.030Z,9.77
2022-11-29T07:29:46.051Z,9.81
2022-11-29T07:31:46.074Z,9.79
2022-11-29T07:32:50.329Z,9.81
2022-11-29T07:33:46.059Z,9.84
2022-11-29T07:34:46.251Z,9.87
2022-11-29T07:35:46.044Z,9.91
2022-11-29T07:36:46.047Z,9.94
2022-11-29T07:37:46.111Z,9.97
2022-11-29T07:38:46.036Z,9.99
2022-11-29T07:39:46.022Z,10.00
2022-11-29T07:40:46.053Z,10.03
2022-11-29T07:42:46.101Z,10.01
2022-11-29T07:43:46.029Z,10.02
2022-11-29T07:45:46.071Z,10.00
2022-11-29T07:47:46.113Z,9.99
2022-11-29T07:48:46.108Z,9.98
2022-11-29T07:49:46.060Z,9.99
2022-11-29T07:50:46.074Z,10.00
2022-11-29T07:51:46.073Z,10.02
2022-11-29T07:52:46.107Z,10.04
2022-11-29T07:53:46.145Z,10.05
2022-11-29T07:54:46.348Z,10.04
2022-11-29T07:57:46.061Z,10.05
2022-11-29T08:01:46.180Z,10.07
2022-11-29T08:02:46.074Z,10.11
2022-11-29T08:03:46.118Z,10.12
2022-11-29T08:04:46.315Z,10.11
2022-11-29T08:05:46.146Z,10.13
2022-11-29T08:06:46.138Z,10.16
2022-11-29T08:07:46.207Z,10.19
2022-11-29T08:08:46.181Z,10.21
2022-11-29T08:10:46.116Z,10.18
2022-11-29T08:11:46.125Z,10.17
2022-11-29T08:12:46.168Z,10.18
2022-11-29T08:14:46.455Z,10.19
2022-11-29T08:15:46.173Z,10.20
2022-11-29T08:16:46.133Z,10.21
2022-11-29T08:17:46.156Z,10.24
2022-11-29T08:18:46.150Z,10.26
2022-11-29T08:19:46.113Z,10.28
2022-11-29T08:20:46.183Z,10.29
2022-11-29T08:21:46.131Z,10.31
2022-11-29T08:22:46.117Z,10.33
2022-11-29T08:24:46.562Z,10.35
2022-11-29T08:25:46.129Z,10.36
2022-11-29T08:27:46.153Z,10.37
2022-11-29T08:28:46.165Z,10.39
2022-11-29T08:30:46.207Z,10.40
2022-11-29T08:31:46.360Z,10.42
2022-11-29T08:32:51.140Z,10.45
2022-11-29T08:33:46.232Z,10.44
2022-11-29T08:37:46.286Z,10.43
2022-11-29T08:38:46.229Z,10.46
2022-11-29T08:40:15.173Z,10.49
2022-11-29T08:40:46.192Z,10.50
2022-11-29T08:41:46.200Z,10.52
2022-11-29T08:42:46.170Z,10.49
2022-11-29T08:43:46.210Z,10.48
2022-11-29T08:44:46.500Z,10.50
2022-11-29T08:45:46.252Z,10.51
2022-11-29T08:46:46.284Z,10.52
2022-11-29T08:47:46.237Z,10.57
2022-11-29T08:48:46.164Z,10.62
2022-11-29T08:49:46.208Z,10.66
2022-11-29T08:50:46.198Z,10.69
2022-11-29T08:51:46.214Z,10.72
2022-11-29T08:52:46.188Z,10.71
2022-11-29T08:54:46.430Z,10.68
2022-11-29T08:55:46.197Z,10.67
2022-11-29T08:57:46.189Z,10.62
2022-11-29T08:58:46.207Z,10.61
2022-11-29T08:59:46.288Z,10.60
2022-11-29T09:01:46.372Z,10.61
2022-11-29T09:02:46.255Z,10.65
2022-11-29T09:03:46.261Z,10.64
2022-11-29T09:05:46.224Z,10.66
2022-11-29T09:07:46.243Z,10.65
2022-11-29T09:08:46.217Z,10.66
2022-11-29T09:09:46.264Z,10.68
2022-11-29T09:10:46.314Z,10.67
2022-11-29T09:11:49.240Z,10.65
2022-11-29T09:12:46.235Z,10.63
2022-11-29T09:13:46.225Z,10.62
2022-11-29T09:14:46.479Z,10.61
2022-11-29T09:15:46.295Z,10.63
2022-11-29T09:16:46.357Z,10.65
2022-11-29T09:17:46.290Z,10.66
2022-11-29T09:18:51.374Z,10.65
2022-11-29T09:22:46.316Z,10.69
2022-11-29T09:23:46.311Z,10.71
2022-11-29T09:25:46.320Z,10.73
2022-11-29T09:26:46.327Z,10.76
2022-11-29T09:27:46.269Z,10.79
2022-11-29T09:28:46.277Z,10.82
2022-11-29T09:29:46.312Z,10.84
2022-11-29T09:30:46.270Z,10.87
2022-11-29T09:31:46.385Z,10.86
2022-11-29T09:32:46.313Z,10.84
2022-11-29T09:33:46.338Z,10.85
2022-11-29T09:34:46.526Z,10.84
2022-11-29T09:35:46.289Z,10.83
2022-11-29T09:36:46.355Z,10.81
2022-11-29T09:37:46.374Z,10.80
2022-11-29T09:38:46.298Z,10.82
2022-11-29T09:39:46.341Z,10.81
2022-11-29T09:40:46.343Z,10.80
2022-11-29T09:41:48.521Z,10.75
2022-11-29T09:42:46.393Z,10.65
2022-11-29T09:43:46.349Z,10.56
2022-11-29T09:44:46.630Z,10.55
2022-11-29T09:46:46.344Z,10.58
2022-11-29T09:47:46.406Z,10.61
2022-11-29T09:48:46.345Z,10.66
2022-11-29T09:49:46.388Z,10.70
2022-11-29T09:50:46.367Z,10.78
2022-11-29T09:51:46.368Z,10.80
2022-11-29T09:53:46.397Z,10.79
2022-11-29T09:54:46.666Z,10.80
2022-11-29T09:55:46.350Z,10.82
2022-11-29T09:56:46.344Z,10.84
2022-11-29T09:57:46.425Z,10.87
2022-11-29T09:58:46.349Z,10.91
2022-11-29T09:59:46.421Z,10.97
2022-11-29T10:00:46.568Z,11.03
2022-11-29T10:01:46.397Z,11.06
2022-11-29T10:02:46.434Z,11.10
2022-11-29T10:03:46.355Z,11.14
2022-11-29T10:04:46.576Z,11.16
2022-11-29T10:05:46.441Z,11.19
2022-11-29T10:07:46.552Z,11.17
2022-11-29T10:08:46.408Z,11.18
2022-11-29T10:09:46.387Z,11.21
2022-11-29T10:10:46.414Z,11.22
2022-11-29T10:11:46.538Z,11.20
2022-11-29T10:12:46.450Z,11.21
2022-11-29T10:13:46.387Z,11.23
2022-11-29T10:14:46.671Z,11.27
2022-11-29T10:15:46.428Z,11.30
2022-11-29T10:16:46.482Z,11.31
2022-11-29T10:17:46.474Z,11.32
2022-11-29T10:18:46.453Z,11.34
2022-11-29T10:19:46.452Z,11.35
2022-11-29T10:20:49.138Z,11.37
2022-11-29T10:21:46.431Z,11.40
2022-11-29T10:22:46.454Z,11.42
2022-11-29T10:23:46.424Z,11.44
2022-11-29T10:24:46.673Z,11.46
2022-11-29T10:25:46.478Z,11.49
2022-11-29T10:27:46.451Z,11.52
2022-11-29T10:28:46.516Z,11.55
2022-11-29T10:29:46.421Z,11.58
2022-11-29T10:30:46.482Z,11.57
2022-11-29T10:31:46.441Z,11.56
2022-11-29T10:32:46.466Z,11.57
2022-11-29T10:33:46.462Z,11.60
2022-11-29T10:34:46.823Z,11.61
2022-11-29T10:35:46.491Z,11.59
2022-11-29T10:36:46.456Z,11.60
2022-11-29T10:38:07.781Z,11.61
2022-11-29T10:39:46.467Z,11.62
2022-11-29T10:40:46.499Z,11.59
2022-11-29T10:41:46.465Z,11.57
2022-11-29T10:42:46.490Z,11.55
2022-11-29T10:43:46.499Z,11.56
2022-11-29T10:45:48.491Z,11.57
2022-11-29T10:46:46.524Z,11.55
2022-11-29T10:47:46.466Z,11.58
2022-11-29T10:48:46.514Z,11.63
2022-11-29T10:49:46.465Z,11.65
2022-11-29T10:50:46.490Z,11.68
2022-11-29T10:51:46.523Z,11.70
2022-11-29T10:52:46.525Z,11.71
2022-11-29T10:53:46.554Z,11.69
2022-11-29T10:54:46.677Z,11.67
2022-11-29T10:55:46.525Z,11.64
2022-11-29T10:56:46.489Z,11.66
2022-11-29T10:57:46.537Z,11.69
2022-11-29T10:58:46.583Z,11.72
2022-11-29T10:59:46.544Z,11.74
2022-11-29T11:00:46.539Z,11.73
2022-11-29T11:01:46.587Z,11.75
2022-11-29T11:02:46.542Z,11.76
2022-11-29T11:03:50.181Z,11.77
2022-11-29T11:04:46.772Z,11.78
2022-11-29T11:05:46.579Z,11.79
2022-11-29T11:08:46.529Z,11.77
2022-11-29T11:09:46.577Z,11.78
2022-11-29T11:11:46.610Z,11.79
2022-11-29T11:13:46.534Z,11.78
2022-11-29T11:14:46.862Z,11.79
2022-11-29T11:16:46.655Z,11.80
2022-11-29T11:18:46.553Z,11.82
2022-11-29T11:19:46.586Z,11.83
2022-11-29T11:21:46.715Z,11.84
2022-11-29T11:22:46.612Z,11.86
2022-11-29T11:23:46.613Z,11.87
2022-11-29T11:24:46.951Z,11.88
2022-11-29T11:26:46.610Z,11.87
2022-11-29T11:28:46.625Z,11.89
2022-11-29T11:29:46.638Z,11.90
2022-11-29T11:30:46.696Z,11.88
2022-11-29T11:32:46.586Z,11.87
2022-11-29T11:33:46.680Z,11.84
2022-11-29T11:34:47.002Z,11.83
2022-11-29T11:35:46.630Z,11.85
2022-11-29T11:37:46.643Z,11.84
2022-11-29T11:39:46.753Z,11.83
2022-11-29T11:40:46.603Z,11.82
2022-11-29T11:41:46.607Z,11.83
2022-11-29T11:42:46.641Z,11.84
2022-11-29T11:43:46.657Z,11.83
2022-11-29T11:44:47.752Z,11.85
2022-11-29T11:46:46.816Z,11.84
2022-11-29T11:47:46.684Z,11.85
2022-11-29T11:49:46.673Z,11.86
2022-11-29T11:50:46.620Z,11.84
2022-11-29T11:53:46.656Z,11.85
2022-11-29T11:57:46.746Z,11.82
2022-11-29T11:58:46.723Z,11.79
2022-11-29T11:59:46.741Z,11.76
2022-11-29T12:01:03.481Z,11.74
2022-11-29T12:02:46.812Z,11.73
2022-11-29T12:03:46.711Z,11.72
2022-11-29T12:04:46.983Z,11.73
2022-11-29T12:05:46.709Z,11.75
2022-11-29T12:06:46.666Z,11.77
2022-11-29T12:08:07.350Z,11.79
2022-11-29T12:08:46.779Z,11.78
2022-11-29T12:09:46.743Z,11.76
2022-11-29T12:10:46.764Z,11.73
2022-11-29T12:11:46.688Z,11.70
2022-11-29T12:13:46.735Z,11.72
2022-11-29T12:14:47.067Z,11.75
2022-11-29T12:15:46.745Z,11.78
2022-11-29T12:16:46.746Z,11.80
2022-11-29T12:17:46.738Z,11.81
2022-11-29T12:18:46.678Z,11.82
2022-11-29T12:19:46.741Z,11.84
2022-11-29T12:20:46.710Z,11.86
2022-11-29T12:21:46.741Z,11.83
2022-11-29T12:22:48.450Z,11.79
2022-11-29T12:23:46.700Z,11.76
2022-11-29T12:24:47.248Z,11.75
2022-11-29T12:25:46.791Z,11.74
2022-11-29T12:28:46.786Z,11.73
2022-11-29T12:29:46.796Z,11.75
2022-11-29T12:30:46.801Z,11.77
2022-11-29T12:32:46.732Z,11.80
2022-11-29T12:33:46.798Z,11.78
2022-11-29T12:35:46.770Z,11.76
2022-11-29T12:36:46.779Z,11.77
2022-11-29T12:37:46.788Z,11.79
2022-11-29T12:38:46.790Z,11.80
2022-11-29T12:39:46.800Z,11.83
2022-11-29T12:40:46.823Z,11.85
2022-11-29T12:41:52.430Z,11.86
2022-11-29T12:42:46.827Z,11.89
2022-11-29T12:43:46.767Z,11.91
2022-11-29T12:44:47.078Z,11.92
2022-11-29T12:47:51.643Z,11.95
2022-11-29T12:48:46.796Z,11.97
2022-11-29T12:49:46.802Z,11.99
2022-11-29T12:50:46.810Z,12.00
2022-11-29T12:52:46.835Z,11.98
2022-11-29T12:54:48.377Z,11.96
2022-11-29T12:55:46.896Z,11.97
2022-11-29T12:56:46.800Z,11.99
2022-11-29T12:57:47.042Z,12.01
2022-11-29T12:58:46.809Z,12.03
2022-11-29T12:59:46.832Z,12.06
2022-11-29T13:00:46.886Z,12.07
2022-11-29T13:01:46.883Z,12.09
2022-11-29T13:02:47.016Z,12.10
2022-11-29T13:03:46.811Z,12.11
2022-11-29T13:04:47.083Z,12.09
2022-11-29T13:05:46.907Z,12.07
2022-11-29T13:06:46.863Z,12.04
2022-11-29T13:07:46.878Z,12.02
2022-11-29T13:08:46.867Z,12.01
2022-11-29T13:09:47.165Z,12.03
2022-11-29T13:10:46.883Z,12.05
2022-11-29T13:11:46.820Z,12.03
2022-11-29T13:12:46.851Z,12.01
2022-11-29T13:13:46.860Z,11.99
2022-11-29T13:15:46.866Z,12.00
2022-11-29T13:17:46.876Z,12.01
2022-11-29T13:19:46.898Z,12.00
2022-11-29T13:20:46.888Z,11.99
2022-11-29T13:21:46.887Z,12.00
2022-11-29T13:22:46.910Z,11.99
2022-11-29T13:24:07.771Z,11.95
2022-11-29T13:24:47.054Z,11.88
2022-11-29T13:25:46.870Z,11.87
2022-11-29T13:26:46.908Z,11.89
2022-11-29T13:27:46.901Z,11.91
2022-11-29T13:29:46.972Z,11.93
2022-11-29T13:30:46.913Z,11.91
2022-11-29T13:31:47.086Z,11.87
2022-11-29T13:32:46.934Z,11.81
2022-11-29T13:33:46.960Z,11.77
2022-11-29T13:34:47.181Z,11.76
2022-11-29T13:36:46.985Z,11.72
2022-11-29T13:37:51.993Z,11.59
2022-11-29T13:38:46.945Z,11.46
2022-11-29T13:39:46.955Z,11.39
2022-11-29T13:40:46.929Z,11.36
2022-11-29T13:41:46.927Z,11.30
2022-11-29T13:42:46.954Z,11.31
2022-11-29T13:43:46.942Z,11.37
2022-11-29T13:44:47.269Z,11.44
2022-11-29T13:45:46.898Z,11.50
2022-11-29T13:46:47.023Z,11.55
2022-11-29T13:47:46.945Z,11.61
2022-11-29T13:48:46.965Z,11.63
2022-11-29T13:49:46.984Z,11.66
2022-11-29T13:50:46.922Z,11.67
2022-11-29T13:51:46.994Z,11.66
2022-11-29T13:52:46.971Z,11.67
2022-11-29T13:55:47.004Z,11.69
2022-11-29T13:56:47.007Z,11.70
2022-11-29T13:58:14.492Z,11.71
2022-11-29T13:58:46.974Z,11.72
2022-11-29T13:59:47.705Z,11.71
2022-11-29T14:01:47.083Z,11.68
2022-11-29T14:02:47.009Z,11.67
2022-11-29T14:03:46.957Z,11.65
2022-11-29T14:04:47.242Z,11.64
2022-11-29T14:05:46.949Z,11.60
2022-11-29T14:06:48.264Z,11.56
2022-11-29T14:07:47.078Z,11.54
2022-11-29T14:09:16.798Z,11.55
2022-11-29T14:09:47.045Z,11.56
2022-11-29T14:10:46.994Z,11.58
2022-11-29T14:12:47.040Z,11.59
2022-11-29T14:13:46.997Z,11.60
2022-11-29T14:15:47.040Z,11.59
2022-11-29T14:16:47.036Z,11.57
2022-11-29T14:17:47.032Z,11.58
2022-11-29T14:19:47.006Z,11.56
2022-11-29T14:20:47.036Z,11.57
2022-11-29T14:21:46.997Z,11.58
2022-11-29T14:23:47.041Z,11.56
2022-11-29T14:24:47.308Z,11.55
2022-11-29T14:25:52.071Z,11.52
2022-11-29T14:26:47.042Z,11.51
2022-11-29T14:28:47.066Z,11.49
2022-11-29T14:29:47.046Z,11.50
2022-11-29T14:30:47.052Z,11.48
2022-11-29T14:31:47.108Z,11.44
2022-11-29T14:32:47.068Z,11.42
2022-11-29T14:33:47.018Z,11.40
2022-11-29T14:34:47.453Z,11.38
2022-11-29T14:35:47.098Z,11.37
2022-11-29T14:37:47.077Z,11.36
2022-11-29T14:38:47.061Z,11.34
2022-11-29T14:39:47.044Z,11.33
2022-11-29T14:41:47.086Z,11.34
2022-11-29T14:43:47.108Z,11.33
2022-11-29T14:44:47.296Z,11.31
2022-11-29T14:45:47.088Z,11.28
2022-11-29T14:46:47.141Z,11.26
2022-11-29T14:47:47.061Z,11.24
2022-11-29T14:48:47.177Z,11.22
2022-11-29T14:49:47.106Z,11.20
2022-11-29T14:50:47.078Z,11.18
2022-11-29T14:51:47.127Z,11.17
2022-11-29T14:53:47.108Z,11.16
2022-11-29T14:54:53.637Z,11.15
2022-11-29T14:55:47.115Z,11.12
2022-11-29T14:56:47.125Z,11.09
2022-11-29T14:59:47.102Z,11.06
2022-11-29T15:00:47.145Z,11.03
2022-11-29T15:01:47.273Z,11.00
2022-11-29T15:02:47.236Z,11.01
2022-11-29T15:03:47.204Z,10.99
2022-11-29T15:07:47.218Z,10.97
2022-11-29T15:08:47.189Z,10.93
2022-11-29T15:09:47.175Z,10.92
2022-11-29T15:10:47.115Z,10.87
2022-11-29T15:11:47.186Z,10.82
2022-11-29T15:12:47.174Z,10.79
2022-11-29T15:13:47.194Z,10.77
2022-11-29T15:14:47.418Z,10.76
2022-11-29T15:15:47.197Z,10.75
2022-11-29T15:16:47.256Z,10.74
2022-11-29T15:18:47.202Z,10.64
2022-11-29T15:19:47.168Z,10.55
2022-11-29T15:20:47.150Z,10.39
2022-11-29T15:21:47.218Z,10.29
2022-11-29T15:22:47.195Z,10.21
2022-11-29T15:23:47.175Z,10.13
2022-11-29T15:24:47.411Z,10.11
2022-11-29T15:25:47.201Z,10.12
2022-11-29T15:26:47.185Z,10.10
2022-11-29T15:27:47.170Z,9.94
2022-11-29T15:28:47.227Z,9.87
2022-11-29T15:29:47.194Z,9.83
2022-11-29T15:30:47.227Z,9.78
2022-11-29T15:31:47.274Z,9.75
2022-11-29T15:32:47.209Z,9.74
2022-11-29T15:33:47.253Z,9.69
2022-11-29T15:35:47.181Z,9.76
2022-11-29T15:36:47.263Z,9.82
2022-11-29T15:37:47.193Z,9.78
2022-11-29T15:38:47.210Z,9.79
2022-11-29T15:39:47.176Z,9.87
2022-11-29T15:40:47.195Z,9.94
2022-11-29T15:41:47.223Z,10.01
2022-11-29T15:42:47.265Z,9.98
2022-11-29T15:44:47.630Z,10.02
2022-11-29T15:45:47.257Z,10.07
2022-11-29T15:46:47.281Z,10.11
2022-11-29T15:47:47.240Z,10.15
2022-11-29T15:48:47.261Z,10.21
2022-11-29T15:49:47.205Z,10.22
2022-11-29T15:51:47.221Z,10.23
2022-11-29T15:52:47.250Z,10.25
2022-11-29T15:54:47.724Z,10.26
2022-11-29T15:55:47.218Z,10.29
2022-11-29T15:56:47.270Z,10.30
2022-11-29T15:57:47.224Z,10.31
2022-11-29T15:58:47.276Z,10.33
2022-11-29T16:00:47.443Z,10.35
2022-11-29T16:01:47.367Z,10.36